Time;durP1;ratioP1;P1;durP2;ratioP2;P2;SDS_P1;SDS_P2;PMS_P1;PMS_P2;Temp;Humidity;BMP_temperature;BMP_pressure;BME280_temperature;BME280_humidity;BME280_pressure;Samples;Min_cycle;Max_cycle;Signal;HPM_P1;HPM_P2
2020/12/05 10:30:32;;;;;;;18.13;9.70;;;8.90;99.90;;;;;;5090486;27;20379;-83
2020/12/05 10:32:58;;;;;;;17.60;9.68;;;8.60;99.90;;;;;;5088676;28;20047;-84
2020/12/05 10:35:23;;;;;;;18.83;9.48;;;8.70;99.90;;;;;;5083772;28;20035;-82
2020/12/05 10:37:49;;;;;;;16.42;9.68;;;8.80;99.20;;;;;;5068713;28;20574;-83
2020/12/05 10:40:14;;;;;;;18.73;9.70;;;8.90;98.40;;;;;;5081133;28;20089;-83
2020/12/05 10:42:39;;;;;;;18.58;10.15;;;9.10;97.60;;;;;;5088544;28;20155;-83
2020/12/05 10:45:05;;;;;;;17.15;10.45;;;9.10;97.20;;;;;;5090899;28;20509;-83
2020/12/05 10:47:30;;;;;;;17.15;9.85;;;9.20;96.60;;;;;;5074386;28;20495;-83
2020/12/05 10:49:56;;;;;;;15.98;9.20;;;9.10;96.00;;;;;;5075389;28;20043;-82
2020/12/05 10:52:21;;;;;;;17.13;9.98;;;9.10;95.40;;;;;;5078493;28;20642;-82
2020/12/05 10:54:47;;;;;;;16.80;9.40;;;9.20;94.70;;;;;;5083687;28;20416;-83
2020/12/05 10:57:12;;;;;;;20.48;9.88;;;9.50;93.90;;;;;;5074692;28;20035;-82
2020/12/05 10:59:38;;;;;;;20.98;9.73;;;9.60;92.80;;;;;;5079807;28;20029;-84
2020/12/05 11:02:03;;;;;;;15.95;8.98;;;9.60;92.40;;;;;;5085347;28;20077;-83
2020/12/05 11:04:29;;;;;;;15.02;8.63;;;9.50;91.30;;;;;;5064124;28;20044;-83
2020/12/05 11:06:54;;;;;;;16.33;9.07;;;9.50;91.80;;;;;;5065108;28;20395;-84
2020/12/05 11:09:20;;;;;;;16.73;9.20;;;9.50;91.60;;;;;;5053494;28;20068;-82
2020/12/05 11:11:45;;;;;;;14.55;8.82;;;9.50;91.20;;;;;;5069673;28;20016;-81
2020/12/05 11:14:11;;;;;;;15.57;9.55;;;9.30;90.90;;;;;;5062474;28;20139;-83
2020/12/05 11:16:36;;;;;;;20.90;9.25;;;9.30;91.30;;;;;;5055083;28;20032;-85
2020/12/05 11:19:02;;;;;;;14.52;8.70;;;9.10;90.90;;;;;;5058706;28;20119;-84
2020/12/05 11:21:28;;;;;;;17.70;9.40;;;8.90;91.00;;;;;;5058874;28;20386;-85
2020/12/05 11:23:53;;;;;;;14.63;8.50;;;8.80;91.10;;;;;;5063639;28;20467;-86
2020/12/05 11:26:20;;;;;;;16.48;8.65;;;8.80;91.30;;;;;;5061547;28;20246;-85
2020/12/05 11:28:47;;;;;;;15.88;8.82;;;8.80;91.30;;;;;;5058456;28;20091;-83
2020/12/05 11:31:12;;;;;;;16.42;8.82;;;8.70;90.90;;;;;;5058103;28;20213;-87
2020/12/05 11:33:38;;;;;;;16.83;8.57;;;8.70;91.00;;;;;;5057710;28;20598;-86
2020/12/05 11:36:03;;;;;;;18.55;9.30;;;8.60;90.90;;;;;;5062162;28;20025;-86
2020/12/05 11:38:29;;;;;;;19.50;9.80;;;8.50;90.90;;;;;;5066550;28;20028;-86
2020/12/05 11:40:54;;;;;;;16.88;9.43;;;8.50;90.70;;;;;;5055590;28;20054;-85
2020/12/05 11:43:20;;;;;;;21.80;9.48;;;8.60;90.90;;;;;;5040825;28;20456;-86
2020/12/05 11:45:46;;;;;;;19.60;10.07;;;8.70;91.20;;;;;;5046600;28;20029;-77
2020/12/05 11:48:11;;;;;;;15.18;9.13;;;8.70;90.60;;;;;;5054212;28;20039;-80
2020/12/05 11:50:37;;;;;;;19.55;9.95;;;8.60;90.30;;;;;;5054657;28;20033;-88
2020/12/05 11:53:03;;;;;;;19.52;10.63;;;8.60;90.20;;;;;;5048228;28;20032;-85
2020/12/05 11:55:29;;;;;;;18.23;9.02;;;8.60;90.50;;;;;;5053248;28;20055;-88
2020/12/05 11:57:58;;;;;;;19.83;10.75;;;8.60;90.40;;;;;;5050585;28;20455;-84
2020/12/05 12:00:24;;;;;;;18.52;11.32;;;8.60;90.30;;;;;;5050788;28;20051;-82
2020/12/05 12:02:49;;;;;;;19.77;12.10;;;8.60;90.10;;;;;;5056475;28;20032;-90
2020/12/05 12:05:14;;;;;;;19.52;10.38;;;8.70;90.30;;;;;;5041677;28;20043;-85
2020/12/05 12:07:40;;;;;;;20.63;10.85;;;8.60;90.00;;;;;;5043925;28;20396;-85
2020/12/05 12:10:05;;;;;;;18.92;10.75;;;8.60;89.80;;;;;;5038084;28;20500;-83
2020/12/05 12:12:31;;;;;;;18.58;10.82;;;8.70;90.00;;;;;;5061459;28;20020;-84
2020/12/05 12:14:57;;;;;;;18.45;9.82;;;8.60;89.90;;;;;;5047428;28;20044;-78
2020/12/05 12:17:22;;;;;;;17.30;9.98;;;8.50;89.90;;;;;;5043584;28;20063;-76
2020/12/05 12:19:48;;;;;;;18.38;10.02;;;8.50;90.10;;;;;;5053026;28;20047;-77
2020/12/05 12:22:13;;;;;;;19.20;10.63;;;8.40;90.50;;;;;;5047446;28;21247;-88
2020/12/05 12:24:39;;;;;;;18.42;10.52;;;8.40;90.40;;;;;;5046580;28;20129;-79
2020/12/05 12:27:04;;;;;;;20.50;11.25;;;8.40;90.30;;;;;;5044286;28;20043;-76
2020/12/05 12:29:29;;;;;;;23.73;11.82;;;8.40;90.40;;;;;;5049234;28;20206;-76
2020/12/05 12:31:55;;;;;;;22.17;11.38;;;8.40;90.30;;;;;;5050175;28;20020;-78
2020/12/05 12:34:21;;;;;;;22.60;12.15;;;8.40;90.70;;;;;;5045935;28;20506;-77
2020/12/05 12:36:46;;;;;;;19.42;10.55;;;8.30;90.50;;;;;;5045976;28;20059;-76
2020/12/05 12:39:11;;;;;;;22.10;11.55;;;8.30;90.50;;;;;;5049314;28;20085;-75
2020/12/05 12:41:37;;;;;;;23.70;14.38;;;8.30;90.40;;;;;;5049197;28;20035;-76
2020/12/05 12:44:03;;;;;;;21.50;11.93;;;8.30;90.50;;;;;;5047983;28;20399;-79
2020/12/05 12:46:28;;;;;;;24.65;12.15;;;8.30;90.50;;;;;;5038478;28;20016;-81
2020/12/05 12:48:54;;;;;;;18.55;10.27;;;8.20;90.40;;;;;;5055742;28;20033;-85
2020/12/05 12:51:23;;;;;;;17.30;10.45;;;8.10;90.40;;;;;;5057329;28;20111;-82
2020/12/05 12:53:49;;;;;;;31.20;15.70;;;8.10;90.50;;;;;;5055187;28;20035;-81
2020/12/05 12:56:22;;;;;;;21.77;11.63;;;8.10;90.60;;;;;;5047022;28;20033;-84
2020/12/05 12:58:48;;;;;;;18.02;11.40;;;8.10;90.50;;;;;;5044121;28;20062;-81
2020/12/05 13:01:15;;;;;;;21.90;11.10;;;8.00;90.60;;;;;;5050235;28;20132;-83
2020/12/05 13:03:40;;;;;;;20.60;12.52;;;8.10;90.70;;;;;;5047470;28;20051;-78
2020/12/05 13:06:06;;;;;;;19.98;11.00;;;8.00;90.80;;;;;;5047396;28;20265;-83
2020/12/05 13:08:34;;;;;;;22.70;11.23;;;8.00;91.00;;;;;;5057529;28;20147;-83
2020/12/05 13:11:01;;;;;;;25.08;12.57;;;8.10;91.00;;;;;;5048344;28;20453;-81
2020/12/05 13:13:27;;;;;;;27.30;14.60;;;8.10;90.90;;;;;;5048983;28;20499;-80
2020/12/05 13:15:52;;;;;;;21.15;12.50;;;8.10;90.90;;;;;;5053811;28;20021;-79
2020/12/05 13:18:18;;;;;;;25.67;12.75;;;8.10;90.60;;;;;;5043707;28;20061;-79
2020/12/05 13:20:43;;;;;;;24.52;12.60;;;8.10;90.90;;;;;;5052261;28;20024;-75
2020/12/05 13:23:12;;;;;;;21.63;11.00;;;8.10;90.80;;;;;;5049471;28;20020;-78
2020/12/05 13:25:37;;;;;;;20.98;11.45;;;8.10;91.00;;;;;;5045160;28;20044;-78
2020/12/05 13:28:03;;;;;;;19.58;11.43;;;8.10;90.80;;;;;;5050938;28;20043;-77
2020/12/05 13:30:28;;;;;;;21.40;10.88;;;8.00;90.80;;;;;;5049003;28;20078;-78
2020/12/05 13:32:54;;;;;;;21.63;12.90;;;8.00;90.70;;;;;;5048514;28;20887;-77
2020/12/05 13:35:19;;;;;;;21.90;10.93;;;7.90;90.80;;;;;;5051256;28;20028;-75
2020/12/05 13:37:44;;;;;;;18.63;10.88;;;7.90;90.50;;;;;;5035288;28;20116;-77
2020/12/05 13:40:10;;;;;;;18.17;10.90;;;7.90;90.70;;;;;;5030981;28;20234;-76
2020/12/05 13:42:42;;;;;;;21.60;12.25;;;7.90;90.80;;;;;;5025083;28;20035;-76
2020/12/05 13:45:07;;;;;;;23.75;13.00;;;7.90;91.30;;;;;;5024969;28;20139;-76
2020/12/05 13:47:33;;;;;;;18.50;10.85;;;7.80;90.90;;;;;;5031233;28;20575;-76
2020/12/05 13:49:59;;;;;;;20.05;11.65;;;7.90;90.90;;;;;;5030309;28;20091;-76
2020/12/05 13:52:24;;;;;;;23.45;11.20;;;7.90;91.40;;;;;;5028474;28;20048;-77
2020/12/05 13:54:50;;;;;;;21.13;11.50;;;7.90;91.10;;;;;;5035717;28;20536;-77
2020/12/05 13:57:15;;;;;;;20.52;11.48;;;7.90;91.20;;;;;;5035584;28;20029;-76
2020/12/05 13:59:41;;;;;;;23.88;11.40;;;7.90;91.10;;;;;;5034076;28;20024;-77
2020/12/05 14:02:08;;;;;;;22.58;11.25;;;7.90;91.10;;;;;;5031473;28;20033;-77
2020/12/05 14:04:34;;;;;;;22.25;11.80;;;8.00;91.30;;;;;;5031810;28;20025;-77
2020/12/05 14:06:59;;;;;;;20.42;11.15;;;7.90;91.30;;;;;;5027793;28;20040;-77
2020/12/05 14:09:25;;;;;;;22.27;10.50;;;7.90;91.20;;;;;;5036211;28;20484;-76
2020/12/05 14:11:51;;;;;;;23.55;11.27;;;7.90;91.20;;;;;;5025597;28;20032;-77
2020/12/05 14:14:17;;;;;;;24.60;11.98;;;7.90;91.40;;;;;;5034580;28;20305;-76
2020/12/05 14:16:43;;;;;;;26.98;11.45;;;7.90;91.40;;;;;;5035315;28;20059;-77
2020/12/05 14:19:09;;;;;;;21.85;11.38;;;7.90;91.60;;;;;;5028173;28;20605;-77
2020/12/05 14:21:35;;;;;;;22.70;12.35;;;7.90;92.00;;;;;;5034290;28;20037;-77
2020/12/05 14:24:00;;;;;;;23.35;12.73;;;7.80;91.80;;;;;;5041173;28;20049;-76
2020/12/05 14:26:28;;;;;;;22.30;11.23;;;7.80;91.60;;;;;;5022513;28;20120;-76
2020/12/05 14:28:54;;;;;;;21.55;12.25;;;7.80;91.70;;;;;;5028887;28;20511;-76
2020/12/05 14:31:23;;;;;;;20.92;11.52;;;7.80;91.80;;;;;;5032249;28;20037;-77
2020/12/05 14:33:50;;;;;;;20.77;11.60;;;7.70;91.60;;;;;;5029269;28;20032;-77
2020/12/05 14:36:16;;;;;;;25.08;12.82;;;7.80;92.00;;;;;;5033397;28;20040;-77
2020/12/05 14:38:44;;;;;;;29.67;16.52;;;7.80;91.70;;;;;;5036139;28;20258;-76
2020/12/05 14:41:10;;;;;;;22.40;12.73;;;7.80;91.70;;;;;;5038347;28;20025;-76
2020/12/05 14:43:36;;;;;;;22.33;11.68;;;7.80;91.80;;;;;;5034176;28;20025;-77
2020/12/05 14:46:02;;;;;;;22.27;12.85;;;7.70;92.00;;;;;;5026633;28;20036;-77
2020/12/05 14:48:28;;;;;;;23.55;12.27;;;7.70;92.00;;;;;;5036621;28;20074;-77
2020/12/05 14:50:54;;;;;;;23.38;12.85;;;7.80;91.90;;;;;;5025119;28;20016;-77
2020/12/05 14:53:19;;;;;;;25.00;12.13;;;7.60;92.40;;;;;;5035403;28;20028;-77
2020/12/05 14:55:45;;;;;;;21.90;11.65;;;7.60;92.30;;;;;;5027211;28;20557;-76
2020/12/05 14:58:10;;;;;;;21.70;12.07;;;7.60;92.30;;;;;;5034152;28;20257;-87
2020/12/05 15:00:35;;;;;;;21.10;11.95;;;7.60;92.50;;;;;;5039164;28;20029;-86
2020/12/05 15:03:01;;;;;;;25.48;11.98;;;7.60;92.60;;;;;;5038528;28;20028;-87
2020/12/05 15:05:26;;;;;;;26.52;13.48;;;7.40;93.60;;;;;;5040150;28;20025;-86
2020/12/05 15:07:52;;;;;;;23.13;11.70;;;7.30;94.10;;;;;;5045138;28;20094;-86
2020/12/05 15:10:17;;;;;;;23.27;12.20;;;7.40;93.50;;;;;;5037256;28;20029;-86
2020/12/05 15:12:43;;;;;;;24.02;12.93;;;7.40;93.50;;;;;;5044031;28;20017;-86
2020/12/05 15:15:08;;;;;;;23.90;12.38;;;7.40;94.00;;;;;;5033901;28;20017;-86
2020/12/05 15:17:34;;;;;;;21.70;12.25;;;7.30;94.70;;;;;;5037798;28;20091;-87
2020/12/05 15:19:59;;;;;;;24.25;12.25;;;7.30;95.10;;;;;;5043574;28;20475;-86
2020/12/05 15:22:25;;;;;;;22.80;11.95;;;7.20;94.60;;;;;;5044688;28;20032;-86
2020/12/05 15:24:50;;;;;;;24.77;12.38;;;7.20;95.20;;;;;;5040511;28;20026;-86
2020/12/05 15:27:15;;;;;;;24.42;12.43;;;7.30;94.40;;;;;;5039143;28;20549;-86
2020/12/05 15:29:41;;;;;;;22.00;11.75;;;7.20;95.00;;;;;;5045428;28;20131;-86
2020/12/05 15:32:10;;;;;;;23.77;12.60;;;7.30;95.30;;;;;;5042553;28;20029;-86
2020/12/05 15:34:35;;;;;;;22.65;12.70;;;7.30;94.80;;;;;;5040580;28;20526;-86
2020/12/05 15:37:01;;;;;;;25.10;12.93;;;7.30;94.80;;;;;;5035939;28;20025;-88
2020/12/05 15:39:26;;;;;;;25.35;12.43;;;7.30;94.40;;;;;;5044578;28;20060;-87
2020/12/05 15:41:52;;;;;;;23.80;12.30;;;7.30;94.90;;;;;;5043482;28;20035;-87
2020/12/05 15:44:17;;;;;;;24.05;12.60;;;7.20;96.00;;;;;;5042557;28;20395;-87
2020/12/05 15:46:43;;;;;;;25.00;13.13;;;7.10;96.70;;;;;;5047354;28;20128;-87
2020/12/05 15:49:08;;;;;;;24.23;12.98;;;7.00;96.80;;;;;;5046607;28;20036;-87
2020/12/05 15:51:34;;;;;;;28.15;13.40;;;6.90;97.60;;;;;;5046794;28;20017;-87
2020/12/05 15:53:59;;;;;;;26.85;12.85;;;6.70;97.90;;;;;;5039832;28;20120;-86
2020/12/05 15:56:25;;;;;;;30.02;13.88;;;6.70;98.30;;;;;;5035682;28;20021;-87
2020/12/05 15:58:51;;;;;;;34.67;14.52;;;6.80;98.00;;;;;;5042214;28;20481;-87
2020/12/05 16:01:17;;;;;;;35.75;15.18;;;6.70;97.90;;;;;;5037273;28;20112;-87
2020/12/05 16:03:44;;;;;;;28.17;13.45;;;6.70;98.20;;;;;;5041735;28;20040;-87
2020/12/05 16:06:15;;;;;;;38.45;15.40;;;6.60;98.40;;;;;;5043514;28;20033;-88
2020/12/05 16:08:40;;;;;;;43.67;18.88;;;6.60;98.40;;;;;;5034235;28;20029;-88
2020/12/05 16:11:05;;;;;;;35.25;17.98;;;6.40;99.50;;;;;;5041783;28;20104;-88
2020/12/05 16:13:31;;;;;;;31.13;16.77;;;6.60;99.10;;;;;;5044914;28;20036;-88
2020/12/05 16:15:58;;;;;;;31.92;16.48;;;6.70;98.60;;;;;;5045998;28;20805;-88
2020/12/05 16:18:26;;;;;;;30.30;15.57;;;6.80;98.20;;;;;;5034411;28;20013;-88
2020/12/05 16:20:52;;;;;;;33.72;17.13;;;6.70;99.50;;;;;;5044602;28;20029;-86
2020/12/05 16:23:17;;;;;;;31.90;16.15;;;6.60;99.40;;;;;;5040070;28;20107;-87
2020/12/05 16:25:43;;;;;;;33.47;16.85;;;6.60;99.90;;;;;;5038304;28;20048;-88
2020/12/05 16:28:08;;;;;;;32.35;16.50;;;6.60;99.90;;;;;;5044312;28;20029;-88
2020/12/05 16:30:34;;;;;;;34.13;16.95;;;6.60;99.90;;;;;;5042450;28;20120;-88
2020/12/05 16:33:00;;;;;;;55.90;26.58;;;6.50;99.90;;;;;;5040719;28;20029;-87
2020/12/05 16:35:25;;;;;;;41.88;20.23;;;6.50;99.90;;;;;;5034994;28;20100;-88
2020/12/05 16:37:54;;;;;;;38.85;20.05;;;6.60;99.90;;;;;;5035465;28;20025;-87
2020/12/05 16:40:22;;;;;;;38.95;20.30;;;6.50;99.90;;;;;;5042607;28;20032;-88
2020/12/05 16:42:48;;;;;;;45.58;21.80;;;6.60;99.90;;;;;;5044319;28;20061;-88
2020/12/05 16:45:13;;;;;;;44.42;22.63;;;6.60;99.90;;;;;;5033792;28;20348;-88
2020/12/05 16:47:39;;;;;;;41.63;22.83;;;6.60;99.90;;;;;;5039397;28;20029;-88
2020/12/05 16:50:04;;;;;;;47.33;23.88;;;6.50;99.90;;;;;;5033477;28;20434;-87
2020/12/05 16:52:30;;;;;;;46.65;24.42;;;6.40;99.90;;;;;;5033712;28;20562;-87
2020/12/05 16:54:56;;;;;;;46.40;23.48;;;6.40;99.90;;;;;;5040574;28;20024;-88
2020/12/05 16:57:21;;;;;;;44.08;23.48;;;6.30;99.90;;;;;;5033753;28;20898;-88
2020/12/05 16:59:47;;;;;;;48.30;25.00;;;6.40;99.90;;;;;;5045067;28;20063;-87
2020/12/05 17:02:13;;;;;;;52.28;23.83;;;6.30;99.90;;;;;;5041445;28;20044;-88
2020/12/05 17:04:38;;;;;;;42.35;22.88;;;6.20;99.90;;;;;;5034991;28;20032;-88
2020/12/05 17:07:04;;;;;;;47.83;25.02;;;6.20;99.90;;;;;;5039924;28;20109;-87
2020/12/05 17:09:29;;;;;;;51.80;25.23;;;6.10;99.90;;;;;;5043084;28;20419;-87
2020/12/05 17:11:55;;;;;;;41.30;22.75;;;6.00;99.90;;;;;;5030910;28;20021;-77
2020/12/05 17:14:20;;;;;;;48.95;24.70;;;6.00;99.90;;;;;;5033660;28;20037;-76
2020/12/05 17:16:46;;;;;;;43.53;23.75;;;6.00;99.90;;;;;;5048258;28;20021;-77
2020/12/05 17:19:11;;;;;;;51.60;23.25;;;6.00;99.90;;;;;;5042654;28;20029;-77
2020/12/05 17:21:37;;;;;;;47.05;25.70;;;6.00;99.90;;;;;;5029212;28;20041;-76
2020/12/05 17:24:02;;;;;;;48.55;24.63;;;6.00;99.90;;;;;;5039613;28;20021;-76
2020/12/05 17:26:28;;;;;;;47.03;25.10;;;6.00;99.90;;;;;;5046928;28;20025;-77
2020/12/05 17:28:53;;;;;;;44.63;23.02;;;6.10;99.90;;;;;;5037108;28;20045;-77
2020/12/05 17:31:19;;;;;;;41.90;22.63;;;6.00;99.90;;;;;;5035429;28;20116;-75
2020/12/05 17:33:44;;;;;;;51.00;24.02;;;6.10;99.90;;;;;;5047645;28;20468;-77
2020/12/05 17:36:10;;;;;;;42.20;22.63;;;6.10;99.90;;;;;;5035422;28;20021;-77
2020/12/05 17:38:36;;;;;;;40.50;22.23;;;6.10;99.90;;;;;;5033133;28;20106;-76
2020/12/05 17:41:02;;;;;;;48.35;22.60;;;6.00;99.90;;;;;;5040723;28;20145;-76
2020/12/05 17:43:27;;;;;;;46.42;22.83;;;6.00;99.90;;;;;;5041179;28;20029;-78
2020/12/05 17:45:53;;;;;;;40.22;22.27;;;6.00;99.90;;;;;;5034217;28;20120;-77
2020/12/05 17:48:19;;;;;;;43.33;22.67;;;6.00;99.90;;;;;;5037303;28;20033;-75
2020/12/05 17:50:44;;;;;;;50.25;23.60;;;6.00;99.90;;;;;;5041134;28;20025;-76
2020/12/05 17:53:10;;;;;;;55.90;26.75;;;6.00;99.90;;;;;;5040685;28;20467;-75
2020/12/05 17:55:35;;;;;;;68.30;28.95;;;6.10;99.90;;;;;;5030655;28;20033;-76
2020/12/05 17:58:01;;;;;;;54.58;27.40;;;6.20;99.90;;;;;;5038194;28;20230;-78
2020/12/05 18:00:26;;;;;;;54.85;27.08;;;6.20;99.90;;;;;;5033035;28;20024;-77
2020/12/05 18:02:52;;;;;;;45.22;24.27;;;6.10;99.90;;;;;;5035686;28;20031;-77
2020/12/05 18:05:19;;;;;;;48.10;23.58;;;6.20;99.90;;;;;;5033548;28;20036;-79
2020/12/05 18:07:44;;;;;;;55.92;27.48;;;6.10;99.90;;;;;;5030932;28;20036;-76
2020/12/05 18:10:10;;;;;;;68.43;33.17;;;6.00;99.90;;;;;;5020022;28;20025;-78
2020/12/05 18:12:35;;;;;;;58.45;28.15;;;6.10;99.90;;;;;;5034078;28;20056;-78
2020/12/05 18:15:01;;;;;;;51.10;25.65;;;6.20;99.90;;;;;;5026985;28;20028;-78
2020/12/05 18:17:26;;;;;;;47.28;25.67;;;6.30;99.90;;;;;;5043200;28;20502;-76
2020/12/05 18:19:52;;;;;;;43.90;22.30;;;6.30;99.90;;;;;;5030758;28;20383;-77
2020/12/05 18:22:17;;;;;;;48.83;23.38;;;6.20;99.90;;;;;;5028204;28;20117;-77
2020/12/05 18:24:42;;;;;;;55.42;25.15;;;6.00;99.90;;;;;;5043717;28;20029;-78
2020/12/05 18:27:08;;;;;;;51.35;25.77;;;6.00;99.90;;;;;;5037380;28;20044;-76
2020/12/05 18:29:33;;;;;;;58.20;26.98;;;6.00;99.90;;;;;;5032471;28;20136;-75
2020/12/05 18:32:01;;;;;;;56.17;27.67;;;5.80;99.90;;;;;;5036021;28;20083;-76
2020/12/05 18:34:27;;;;;;;47.97;25.45;;;5.90;99.90;;;;;;5036261;28;20468;-78
2020/12/05 18:36:54;;;;;;;65.07;30.35;;;5.80;99.90;;;;;;5035308;28;20047;-80
2020/12/05 18:39:20;;;;;;;56.70;28.33;;;5.90;99.90;;;;;;5035176;28;20029;-76
2020/12/05 18:41:47;;;;;;;62.53;30.30;;;5.90;99.90;;;;;;5028167;28;20124;-75
2020/12/05 18:44:13;;;;;;;62.08;29.15;;;5.90;99.90;;;;;;5031453;28;20030;-76
2020/12/05 18:46:38;;;;;;;62.10;29.08;;;5.60;99.90;;;;;;5030375;28;20120;-76
2020/12/05 18:49:04;;;;;;;53.33;28.67;;;5.70;99.90;;;;;;5042534;28;20060;-81
2020/12/05 18:51:31;;;;;;;255.57;72.70;;;5.60;99.90;;;;;;5037165;28;20391;-82
2020/12/05 18:53:58;;;;;;;256.02;72.90;;;5.60;99.90;;;;;;5033831;28;20041;-82
2020/12/05 18:56:25;;;;;;;221.30;67.93;;;5.60;99.90;;;;;;5039768;28;20112;-82
2020/12/05 18:58:51;;;;;;;229.43;68.20;;;5.50;99.90;;;;;;5047574;28;20033;-82
2020/12/05 19:01:16;;;;;;;191.27;56.13;;;5.30;99.90;;;;;;5051005;28;20017;-82
2020/12/05 19:03:42;;;;;;;131.07;46.85;;;5.30;99.90;;;;;;5036276;28;20799;-84
2020/12/05 19:06:08;;;;;;;93.82;38.72;;;5.20;99.90;;;;;;5043493;28;20029;-82
2020/12/05 19:08:34;;;;;;;69.43;30.95;;;5.30;99.90;;;;;;5045873;28;20025;-83
2020/12/05 19:11:01;;;;;;;87.50;34.63;;;5.40;99.90;;;;;;5033603;28;20025;-82
2020/12/05 19:13:27;;;;;;;79.65;31.85;;;5.30;99.90;;;;;;5030960;28;20454;-82
2020/12/05 19:15:53;;;;;;;89.55;34.92;;;5.30;99.90;;;;;;5036753;28;20063;-76
2020/12/05 19:18:19;;;;;;;72.40;31.65;;;5.20;99.90;;;;;;5042845;28;20032;-77
2020/12/05 19:20:45;;;;;;;76.47;31.25;;;5.20;99.90;;;;;;5046524;28;20029;-77
2020/12/05 19:23:10;;;;;;;64.30;29.48;;;5.20;99.90;;;;;;5042206;28;20037;-76
2020/12/05 19:25:36;;;;;;;62.10;29.63;;;5.00;99.90;;;;;;5042968;28;20021;-77
2020/12/05 19:28:02;;;;;;;58.00;27.77;;;5.00;99.90;;;;;;5047703;28;20048;-77
2020/12/05 19:30:27;;;;;;;58.50;28.15;;;4.90;99.90;;;;;;5047503;28;20037;-77
2020/12/05 19:32:53;;;;;;;56.08;27.75;;;4.80;99.90;;;;;;5033453;28;20034;-77
2020/12/05 19:35:18;;;;;;;54.83;27.27;;;4.80;99.90;;;;;;5050616;28;20471;-76
2020/12/05 19:37:44;;;;;;;54.60;28.42;;;4.70;99.90;;;;;;5048323;28;20025;-76
2020/12/05 19:40:09;;;;;;;51.78;28.83;;;4.70;99.90;;;;;;5046915;28;20029;-77
2020/12/05 19:42:36;;;;;;;56.17;28.42;;;4.60;99.90;;;;;;5035925;28;20048;-76
2020/12/05 19:45:04;;;;;;;52.88;28.00;;;4.70;99.90;;;;;;5041319;28;20036;-77
2020/12/05 19:47:30;;;;;;;53.65;28.60;;;4.70;99.90;;;;;;5047262;28;20479;-77
2020/12/05 19:49:56;;;;;;;53.75;28.92;;;4.70;99.90;;;;;;5050671;28;20075;-76
2020/12/05 19:52:21;;;;;;;51.63;27.17;;;4.80;99.90;;;;;;5046473;28;20022;-76
2020/12/05 19:54:47;;;;;;;51.08;27.02;;;4.60;99.90;;;;;;5039624;28;20022;-76
2020/12/05 19:57:12;;;;;;;52.00;26.77;;;4.50;99.90;;;;;;5046478;28;20092;-76
2020/12/05 19:59:38;;;;;;;52.00;25.70;;;4.50;99.90;;;;;;5048516;28;20032;-76
2020/12/05 20:02:03;;;;;;;52.60;26.75;;;4.50;99.90;;;;;;5046470;28;20238;-76
2020/12/05 20:04:29;;;;;;;57.13;28.83;;;4.60;99.90;;;;;;5049713;28;20029;-76
2020/12/05 20:06:54;;;;;;;53.35;27.00;;;4.70;99.90;;;;;;5049594;28;20033;-76
2020/12/05 20:09:21;;;;;;;55.50;29.25;;;4.70;99.90;;;;;;5046891;28;20040;-76
2020/12/05 20:11:47;;;;;;;60.42;30.02;;;4.60;99.90;;;;;;5060251;28;20021;-76
2020/12/05 20:14:13;;;;;;;81.00;36.08;;;4.50;99.90;;;;;;5047628;28;20021;-76
2020/12/05 20:16:39;;;;;;;74.30;35.15;;;4.50;99.90;;;;;;5047769;28;20039;-76
2020/12/05 20:19:04;;;;;;;57.22;31.33;;;4.60;99.90;;;;;;5042477;28;20021;-76
2020/12/05 20:21:29;;;;;;;56.08;30.38;;;4.60;99.90;;;;;;5054304;28;20458;-77
2020/12/05 20:23:55;;;;;;;56.20;28.67;;;4.50;99.90;;;;;;5046096;28;20045;-76
2020/12/05 20:26:21;;;;;;;58.22;30.90;;;4.80;99.90;;;;;;5044866;28;20029;-76
2020/12/05 20:28:47;;;;;;;60.70;30.73;;;4.70;99.90;;;;;;5045465;28;20110;-77
2020/12/05 20:31:13;;;;;;;65.45;31.23;;;4.80;99.90;;;;;;5047198;28;20041;-76
2020/12/05 20:33:38;;;;;;;64.38;32.08;;;4.80;99.90;;;;;;5047228;28;20037;-76
2020/12/05 20:36:05;;;;;;;64.80;31.17;;;4.90;99.90;;;;;;5035976;28;20059;-77
2020/12/05 20:38:31;;;;;;;62.55;31.02;;;4.90;99.90;;;;;;5049529;28;20025;-75
2020/12/05 20:40:56;;;;;;;57.55;30.65;;;5.00;99.90;;;;;;5041598;28;20459;-75
2020/12/05 20:43:22;;;;;;;57.92;30.20;;;5.10;99.90;;;;;;5042318;28;20030;-75
2020/12/05 20:45:47;;;;;;;59.72;31.25;;;5.10;99.90;;;;;;5041843;28;20712;-76
2020/12/05 20:48:13;;;;;;;55.20;30.60;;;5.30;99.90;;;;;;5040962;28;20059;-76
2020/12/05 20:50:38;;;;;;;54.05;28.40;;;5.30;99.90;;;;;;5046023;28;20025;-77
2020/12/05 20:53:04;;;;;;;53.85;28.75;;;5.30;99.90;;;;;;5044091;28;20040;-76
2020/12/05 20:55:29;;;;;;;57.97;29.05;;;5.20;99.90;;;;;;5035818;28;20053;-76
2020/12/05 20:57:55;;;;;;;50.97;26.13;;;5.20;99.90;;;;;;5041798;28;20024;-74
2020/12/05 21:00:20;;;;;;;46.97;22.40;;;5.30;99.90;;;;;;5048277;28;20037;-75
2020/12/05 21:02:46;;;;;;;39.13;21.33;;;5.40;99.90;;;;;;5042738;28;20445;-76
2020/12/05 21:05:11;;;;;;;50.65;26.80;;;5.50;99.90;;;;;;5038591;28;20124;-75
2020/12/05 21:07:37;;;;;;;46.70;22.40;;;5.60;99.90;;;;;;5047766;28;20039;-75
2020/12/05 21:10:03;;;;;;;48.63;23.95;;;5.50;99.90;;;;;;5045730;28;20423;-76
2020/12/05 21:12:28;;;;;;;62.83;28.13;;;5.50;99.90;;;;;;5042212;28;20033;-76
2020/12/05 21:14:54;;;;;;;59.53;28.50;;;5.60;99.90;;;;;;5040454;28;20017;-76
2020/12/05 21:17:19;;;;;;;64.47;28.33;;;5.50;99.90;;;;;;5043936;28;20446;-75
2020/12/05 21:19:45;;;;;;;59.83;24.35;;;5.50;99.90;;;;;;5045218;28;20080;-75
2020/12/05 21:22:11;;;;;;;179.27;50.33;;;5.50;99.90;;;;;;5041518;28;20627;-75
2020/12/05 21:24:36;;;;;;;214.07;54.95;;;5.50;99.90;;;;;;5048772;28;20029;-76
2020/12/05 21:27:02;;;;;;;377.85;83.20;;;5.60;99.90;;;;;;5038171;28;20033;-75
2020/12/05 21:29:27;;;;;;;199.85;51.95;;;5.50;99.90;;;;;;5039553;28;20041;-75
2020/12/05 21:31:53;;;;;;;57.90;23.85;;;5.50;99.90;;;;;;5046000;28;20356;-75
2020/12/05 21:34:18;;;;;;;47.97;19.40;;;5.60;99.90;;;;;;5046178;28;20069;-75
2020/12/05 21:36:44;;;;;;;46.33;19.48;;;5.60;99.90;;;;;;5041844;28;20028;-74
2020/12/05 21:39:09;;;;;;;61.63;23.05;;;5.70;99.90;;;;;;5045012;28;20040;-75
2020/12/05 21:41:35;;;;;;;42.03;19.83;;;5.70;99.90;;;;;;5042023;28;20029;-75
2020/12/05 21:44:01;;;;;;;46.92;21.85;;;5.70;99.90;;;;;;5050736;28;20021;-75
2020/12/05 21:46:27;;;;;;;36.28;19.38;;;5.80;99.90;;;;;;5044531;28;20060;-75
2020/12/05 21:48:52;;;;;;;44.40;22.50;;;5.80;99.90;;;;;;5046059;28;20057;-76
2020/12/05 21:51:18;;;;;;;88.38;35.13;;;5.80;99.90;;;;;;5038979;28;20029;-76
2020/12/05 21:53:44;;;;;;;54.92;24.70;;;5.70;99.90;;;;;;5045849;28;20106;-76
2020/12/05 21:56:13;;;;;;;69.45;30.08;;;5.70;99.90;;;;;;5040540;28;20745;-75
2020/12/05 21:58:39;;;;;;;120.32;45.13;;;5.70;99.90;;;;;;5044742;28;20021;-75
2020/12/05 22:01:09;;;;;;;64.22;28.05;;;5.60;99.90;;;;;;5044953;28;20021;-75
2020/12/05 22:03:35;;;;;;;30.67;14.70;;;5.60;99.90;;;;;;5043240;28;20094;-75
2020/12/05 22:06:00;;;;;;;29.50;16.35;;;5.60;99.90;;;;;;5047312;28;20068;-75
2020/12/05 22:08:26;;;;;;;26.70;15.05;;;5.70;99.90;;;;;;5041303;28;20499;-75
2020/12/05 22:10:51;;;;;;;27.90;14.43;;;5.70;99.90;;;;;;5042291;28;20029;-75
2020/12/05 22:13:17;;;;;;;28.38;15.10;;;5.70;99.90;;;;;;5040878;28;20037;-76
2020/12/05 22:15:42;;;;;;;26.15;14.45;;;5.80;99.90;;;;;;5042339;28;20052;-76
2020/12/05 22:18:10;;;;;;;26.20;15.20;;;5.70;99.90;;;;;;5041240;28;20103;-76
2020/12/05 22:20:36;;;;;;;25.75;14.00;;;5.70;99.90;;;;;;5041213;28;20040;-76
2020/12/05 22:23:31;;;;;;;28.92;15.45;;;5.60;99.90;;;;;;5042727;28;20017;-75
2020/12/05 22:25:57;;;;;;;27.75;15.10;;;5.50;99.90;;;;;;5021416;28;20044;-75
2020/12/05 22:28:23;;;;;;;33.40;16.40;;;5.50;99.90;;;;;;5042983;28;20045;-76
2020/12/05 22:30:48;;;;;;;32.92;16.50;;;5.50;99.90;;;;;;5045222;28;20021;-76
2020/12/05 22:33:13;;;;;;;27.13;14.77;;;5.50;99.90;;;;;;5046535;28;20048;-76
2020/12/05 22:35:39;;;;;;;32.35;15.65;;;5.40;99.90;;;;;;5043337;28;20068;-76
2020/12/05 22:38:04;;;;;;;26.80;14.60;;;5.50;99.90;;;;;;5042887;28;20379;-76
2020/12/05 22:40:31;;;;;;;27.45;13.65;;;5.60;99.90;;;;;;5047557;28;20032;-76
2020/12/05 22:42:57;;;;;;;26.60;14.45;;;5.60;99.90;;;;;;5043384;28;20028;-76
2020/12/05 22:45:23;;;;;;;28.55;14.85;;;5.60;99.90;;;;;;5046571;28;20056;-76
2020/12/05 22:47:48;;;;;;;28.30;14.15;;;5.60;99.90;;;;;;5038612;28;20045;-76
2020/12/05 22:50:15;;;;;;;24.55;14.30;;;5.60;99.90;;;;;;5046233;28;20039;-76
2020/12/05 22:52:41;;;;;;;24.23;14.02;;;5.60;99.90;;;;;;5036804;28;20409;-76
2020/12/05 22:55:08;;;;;;;26.42;14.20;;;5.60;99.90;;;;;;5040010;28;20029;-75
2020/12/05 22:57:33;;;;;;;29.65;14.85;;;5.70;99.90;;;;;;5041821;28;20032;-76
2020/12/05 22:59:59;;;;;;;27.42;14.63;;;5.70;99.90;;;;;;5042566;28;20028;-76